createdAt,value
2019-03-04T00:01:42.994Z,26.41
2019-03-04T00:03:50.220Z,26.93
2019-03-04T00:05:58.149Z,27.45
2019-03-04T00:08:06.181Z,27.75
2019-03-04T00:10:13.233Z,27.88
2019-03-04T00:12:22.338Z,28.15
2019-03-04T00:14:40.103Z,29.06
2019-03-04T00:16:47.835Z,28.59
2019-03-04T00:18:55.156Z,28.86
2019-03-04T00:21:02.514Z,28.90
2019-03-04T00:23:09.970Z,28.66
2019-03-04T00:25:17.418Z,28.92
2019-03-04T00:27:24.711Z,28.94
2019-03-04T00:29:31.834Z,29.24
2019-03-04T00:31:39.663Z,29.50
2019-03-04T00:33:46.917Z,29.37
2019-03-04T00:35:55.015Z,28.92
2019-03-04T00:38:02.410Z,28.93
2019-03-04T00:40:09.952Z,28.93
2019-03-04T00:42:17.718Z,29.50
2019-03-04T00:44:24.964Z,29.04
2019-03-04T00:46:34.403Z,29.21
2019-03-04T00:48:42.042Z,29.21
2019-03-04T00:50:49.251Z,29.23
2019-03-04T00:53:00.414Z,29.16
2019-03-04T00:55:07.702Z,29.69
2019-03-04T00:57:15.139Z,29.59
2019-03-04T00:59:22.395Z,29.54
2019-03-04T01:01:29.757Z,29.10
2019-03-04T01:03:38.077Z,29.16
2019-03-04T01:05:45.466Z,29.14
2019-03-04T01:07:52.642Z,29.20
2019-03-04T01:09:59.890Z,29.22
2019-03-04T01:12:07.919Z,29.25
2019-03-04T01:14:15.111Z,28.78
2019-03-04T01:16:22.521Z,29.31
2019-03-04T01:18:29.778Z,29.46
2019-03-04T01:20:37.321Z,29.19
2019-03-04T01:22:44.479Z,29.24
2019-03-04T01:24:55.839Z,29.29
2019-03-04T01:27:04.587Z,29.16
2019-03-04T01:29:12.122Z,29.50
2019-03-04T01:31:21.680Z,29.27
2019-03-04T01:33:29.479Z,29.22
2019-03-04T01:35:42.961Z,29.49
2019-03-04T01:38:01.660Z,29.26
2019-03-04T01:40:12.221Z,29.43
2019-03-04T01:42:20.053Z,29.56
2019-03-04T01:44:35.246Z,29.45
2019-03-04T01:46:42.559Z,29.01
2019-03-04T01:48:49.800Z,29.25
2019-03-04T01:50:57.132Z,29.37
2019-03-04T01:53:04.364Z,29.49
2019-03-04T01:55:12.484Z,29.28
2019-03-04T01:57:20.301Z,29.41
2019-03-04T01:59:27.487Z,29.24
2019-03-04T02:01:34.698Z,30.00
2019-03-04T02:03:41.837Z,29.77
2019-03-04T02:08:02.147Z,29.45
2019-03-04T02:10:10.663Z,29.71
2019-03-04T02:12:19.088Z,29.63
2019-03-04T02:14:26.444Z,29.53
2019-03-04T02:16:34.559Z,29.43
2019-03-04T02:18:41.723Z,29.18
2019-03-04T02:20:50.256Z,29.24
2019-03-04T02:22:59.698Z,29.23
2019-03-04T02:25:07.245Z,29.50
2019-03-04T02:27:14.700Z,29.45
2019-03-04T02:29:21.785Z,29.40
2019-03-04T02:31:29.026Z,29.43
2019-03-04T02:33:36.987Z,29.35
2019-03-04T02:35:44.141Z,29.48
2019-03-04T02:37:51.713Z,29.32
2019-03-04T02:39:58.773Z,29.44
2019-03-04T02:42:06.084Z,29.50
2019-03-04T02:44:13.312Z,29.29
2019-03-04T02:46:20.465Z,29.35
2019-03-04T02:48:27.787Z,29.26
2019-03-04T02:50:35.811Z,29.37
2019-03-04T02:52:43.702Z,29.50
2019-03-04T02:54:50.854Z,29.72
2019-03-04T02:56:59.502Z,29.61
2019-03-04T02:59:07.009Z,29.60
2019-03-04T03:01:14.640Z,29.63
2019-03-04T03:03:21.780Z,29.92
2019-03-04T03:05:28.834Z,29.50
2019-03-04T03:07:36.609Z,29.39
2019-03-04T03:09:43.950Z,29.20
2019-03-04T03:11:52.421Z,29.34
2019-03-04T03:13:59.713Z,29.24
2019-03-04T03:16:07.727Z,29.27
2019-03-04T03:18:16.024Z,28.98
2019-03-04T03:20:23.300Z,28.92
2019-03-04T03:22:30.495Z,28.77
2019-03-04T03:24:37.796Z,28.67
2019-03-04T03:26:45.073Z,28.37
2019-03-04T03:28:53.549Z,28.15
2019-03-04T03:31:01.234Z,28.32
2019-03-04T03:33:09.364Z,28.33
2019-03-04T03:35:16.546Z,27.80
2019-03-04T03:37:24.570Z,27.66
2019-03-04T03:39:33.941Z,29.55
2019-03-04T03:41:41.170Z,28.38
2019-03-04T03:43:48.974Z,27.81
2019-03-04T03:45:56.283Z,27.90
2019-03-04T03:48:03.460Z,27.97
2019-03-04T03:50:17.394Z,28.22
2019-03-04T03:52:25.282Z,28.33
2019-03-04T03:54:32.416Z,28.73
2019-03-04T03:56:40.128Z,29.10
2019-03-04T03:58:47.672Z,28.99
2019-03-04T04:00:54.998Z,29.15
2019-03-04T04:03:02.185Z,28.72
2019-03-04T04:05:10.071Z,28.83
2019-03-04T04:07:17.097Z,28.53
2019-03-04T04:09:25.106Z,28.33
2019-03-04T04:11:33.849Z,28.29
2019-03-04T04:13:41.547Z,28.11
2019-03-04T04:15:48.480Z,28.32
2019-03-04T04:17:55.695Z,28.14
2019-03-04T04:20:03.241Z,28.25
2019-03-04T04:22:10.659Z,28.55
2019-03-04T04:24:17.947Z,28.28
2019-03-04T04:26:25.127Z,28.28
2019-03-04T04:28:34.860Z,28.84
2019-03-04T04:30:42.122Z,28.55
2019-03-04T04:32:50.027Z,28.74
2019-03-04T04:34:57.887Z,28.57
2019-03-04T04:37:05.204Z,28.72
2019-03-04T04:39:12.331Z,28.34
2019-03-04T04:41:19.494Z,28.48
2019-03-04T04:43:26.917Z,28.08
2019-03-04T04:45:34.104Z,27.98
2019-03-04T04:47:48.939Z,28.01
2019-03-04T04:49:56.105Z,28.49
2019-03-04T04:52:03.405Z,28.34
2019-03-04T04:54:11.219Z,28.25
2019-03-04T04:56:20.130Z,28.19
2019-03-04T04:58:27.220Z,28.23
2019-03-04T05:00:35.589Z,28.34
2019-03-04T05:02:42.575Z,28.56
2019-03-04T05:04:51.619Z,28.83
2019-03-04T05:06:59.057Z,28.84
2019-03-04T05:09:08.486Z,28.71
2019-03-04T05:11:17.881Z,28.88
2019-03-04T05:13:25.909Z,28.93
2019-03-04T05:15:33.144Z,28.61
2019-03-04T05:17:40.371Z,29.02
2019-03-04T05:19:47.595Z,28.98
2019-03-04T05:21:55.069Z,28.44
2019-03-04T05:24:03.157Z,28.33
2019-03-04T05:26:10.403Z,28.03
2019-03-04T05:28:18.302Z,27.86
2019-03-04T05:30:26.025Z,27.72
2019-03-04T05:32:33.326Z,27.74
2019-03-04T05:34:41.262Z,27.78
2019-03-04T05:36:49.038Z,27.75
2019-03-04T05:38:56.251Z,27.72
2019-03-04T05:41:03.475Z,27.66
2019-03-04T05:43:10.875Z,27.79
2019-03-04T05:45:18.798Z,27.78
2019-03-04T05:47:26.463Z,27.75
2019-03-04T05:49:33.770Z,27.91
2019-03-04T05:51:41.276Z,28.31
2019-03-04T05:53:48.700Z,28.09
2019-03-04T05:55:55.858Z,28.16
2019-03-04T05:58:03.746Z,28.19
2019-03-04T06:00:17.256Z,28.03
2019-03-04T06:02:24.494Z,27.80
2019-03-04T06:04:31.726Z,27.84
2019-03-04T06:07:02.313Z,27.77
2019-03-04T06:09:12.253Z,27.56
2019-03-04T06:11:20.149Z,27.49
2019-03-04T06:13:28.071Z,27.22
2019-03-04T06:15:36.063Z,27.42
2019-03-04T06:17:43.330Z,27.28
2019-03-04T06:19:51.243Z,27.23
2019-03-04T06:21:59.303Z,27.70
2019-03-04T06:24:07.114Z,28.43
2019-03-04T06:26:14.961Z,28.58
2019-03-04T06:28:22.414Z,27.55
2019-03-04T06:30:29.755Z,27.74
2019-03-04T06:32:36.981Z,27.86
2019-03-04T06:34:44.242Z,28.08
2019-03-04T06:36:53.083Z,28.14
2019-03-04T06:39:00.527Z,28.18
2019-03-04T06:41:09.058Z,28.17
2019-03-04T06:43:16.252Z,27.99
2019-03-04T06:45:23.432Z,27.99
2019-03-04T06:47:31.241Z,27.85
2019-03-04T06:49:38.347Z,27.84
2019-03-04T06:51:47.533Z,27.55
2019-03-04T06:54:21.831Z,27.81
2019-03-04T06:56:58.087Z,29.34
2019-03-04T06:59:23.728Z,27.95
2019-03-04T07:01:38.924Z,28.27
2019-03-04T07:03:54.827Z,27.72
2019-03-04T07:06:02.011Z,27.79
2019-03-04T07:08:10.527Z,27.75
2019-03-04T07:10:18.062Z,28.35
2019-03-04T07:12:25.221Z,28.16
2019-03-04T07:14:32.489Z,28.33
2019-03-04T07:16:39.931Z,28.29
2019-03-04T07:18:47.261Z,28.21
2019-03-04T07:20:54.386Z,28.21
2019-03-04T07:23:02.362Z,27.99
2019-03-04T07:25:10.564Z,27.98
2019-03-04T07:27:18.322Z,27.81
2019-03-04T07:29:45.008Z,27.67
2019-03-04T07:31:52.193Z,27.64
2019-03-04T07:33:59.367Z,27.79
2019-03-04T07:36:08.080Z,27.77
2019-03-04T07:38:49.195Z,28.03
2019-03-04T07:40:56.719Z,28.27
2019-03-04T07:43:03.856Z,28.21
2019-03-04T07:45:12.260Z,27.99
2019-03-04T07:47:19.588Z,27.95
2019-03-04T07:49:26.773Z,27.95
2019-03-04T07:51:34.033Z,28.12
2019-03-04T07:53:46.336Z,28.28
2019-03-04T07:55:52.062Z,28.22
2019-03-04T07:57:59.520Z,28.16
2019-03-04T08:00:07.039Z,28.13
2019-03-04T08:02:14.338Z,27.83
2019-03-04T08:04:21.420Z,27.82
2019-03-04T08:06:28.629Z,27.68
2019-03-04T08:08:36.401Z,27.61
2019-03-04T08:11:26.346Z,27.56
2019-03-04T08:13:40.393Z,28.23
2019-03-04T08:15:49.901Z,27.74
2019-03-04T08:17:57.088Z,28.35
2019-03-04T08:20:04.430Z,27.89
2019-03-04T08:22:11.781Z,27.71
2019-03-04T08:24:19.037Z,28.00
2019-03-04T08:26:26.796Z,28.09
2019-03-04T08:28:33.977Z,27.99
2019-03-04T08:30:41.658Z,28.16
2019-03-04T08:32:49.923Z,28.15
2019-03-04T08:34:57.220Z,28.16
2019-03-04T08:37:04.535Z,27.95
2019-03-04T08:39:13.084Z,28.03
2019-03-04T08:41:20.262Z,27.71
2019-03-04T08:43:27.616Z,27.41
2019-03-04T08:45:34.988Z,27.37
2019-03-04T08:49:55.208Z,27.36
2019-03-04T08:52:02.613Z,27.67
2019-03-04T08:54:09.976Z,28.16
2019-03-04T08:56:17.416Z,27.99
2019-03-04T08:58:24.548Z,27.48
2019-03-04T09:00:32.678Z,27.63
2019-03-04T09:02:40.027Z,27.69
2019-03-04T09:04:47.228Z,27.91
2019-03-04T09:06:54.389Z,28.08
2019-03-04T09:09:01.639Z,27.94
2019-03-04T09:11:08.531Z,27.90
2019-03-04T09:13:15.668Z,27.93
2019-03-04T09:15:22.914Z,27.93
2019-03-04T09:17:30.202Z,27.78
2019-03-04T09:19:37.411Z,27.58
2019-03-04T09:21:44.864Z,27.35
2019-03-04T09:23:51.970Z,27.47
2019-03-04T09:26:10.681Z,27.39
2019-03-04T09:28:18.159Z,27.63
2019-03-04T09:30:25.908Z,27.66
2019-03-04T09:32:33.329Z,27.80
2019-03-04T09:34:40.714Z,27.89
2019-03-04T09:36:48.171Z,27.32
2019-03-04T09:38:55.959Z,27.43
2019-03-04T09:41:03.316Z,27.54
2019-03-04T09:43:10.347Z,27.68
2019-03-04T09:45:17.889Z,27.60
2019-03-04T09:47:25.061Z,27.85
2019-03-04T09:49:32.353Z,27.98
2019-03-04T09:51:39.603Z,28.31
2019-03-04T09:53:46.533Z,27.89
2019-03-04T09:55:53.625Z,27.78
2019-03-04T09:58:00.931Z,27.86
2019-03-04T10:00:25.663Z,27.69
2019-03-04T10:02:41.459Z,27.60
2019-03-04T10:05:26.792Z,27.59
2019-03-04T10:07:41.314Z,27.47
2019-03-04T10:10:16.325Z,27.48
2019-03-04T10:12:30.105Z,27.33
2019-03-04T10:15:09.677Z,27.08
2019-03-04T10:17:39.947Z,27.02
2019-03-04T10:20:41.525Z,27.03
2019-03-04T10:23:28.348Z,26.98
2019-03-04T10:26:02.553Z,27.05
2019-03-04T10:28:44.310Z,27.46
2019-03-04T10:31:11.332Z,27.46
2019-03-04T10:34:08.034Z,27.25
2019-03-04T10:36:53.575Z,27.25
2019-03-04T10:39:26.166Z,27.33
2019-03-04T10:41:55.983Z,27.49
2019-03-04T10:44:43.113Z,27.83
2019-03-04T10:47:03.028Z,27.88
2019-03-04T10:49:09.988Z,27.87
2019-03-04T10:51:18.760Z,27.80
2019-03-04T10:53:26.928Z,27.96
2019-03-04T10:55:41.690Z,27.45
2019-03-04T10:57:43.092Z,27.25
2019-03-04T10:59:50.453Z,27.21
2019-03-04T11:01:57.898Z,27.16
2019-03-04T11:04:05.303Z,27.01
2019-03-04T11:06:13.189Z,26.90
2019-03-04T11:08:20.814Z,26.85
2019-03-04T11:10:28.102Z,26.64
2019-03-04T11:12:35.416Z,26.62
2019-03-04T11:14:42.788Z,26.50
2019-03-04T11:16:49.857Z,26.50
2019-03-04T11:18:56.972Z,26.50
2019-03-04T11:21:04.399Z,26.47
2019-03-04T11:23:15.005Z,26.30
2019-03-04T11:25:21.780Z,26.25
2019-03-04T11:27:28.932Z,26.43
2019-03-04T11:29:35.950Z,26.37
2019-03-04T11:31:44.217Z,26.55
2019-03-04T11:33:51.420Z,26.70
2019-03-04T11:35:58.713Z,26.97
2019-03-04T11:38:08.083Z,26.61
2019-03-04T11:40:28.441Z,26.51
2019-03-04T11:42:35.724Z,26.63
2019-03-04T11:44:42.908Z,26.79
2019-03-04T11:46:50.215Z,26.83
2019-03-04T11:48:57.623Z,27.01
2019-03-04T11:51:05.211Z,27.19
2019-03-04T11:53:13.053Z,27.33
2019-03-04T11:55:20.377Z,27.35
2019-03-04T11:57:27.449Z,27.32
2019-03-04T11:59:34.732Z,27.27
2019-03-04T12:01:48.130Z,27.19
2019-03-04T12:03:56.152Z,27.14
2019-03-04T12:06:03.205Z,27.00
2019-03-04T12:08:11.223Z,27.26
2019-03-04T12:10:18.666Z,26.80
2019-03-04T12:12:25.899Z,27.23
2019-03-04T12:14:33.638Z,27.00
2019-03-04T12:16:41.656Z,26.99
2019-03-04T12:18:48.986Z,26.89
2019-03-04T12:20:56.432Z,26.75
2019-03-04T12:23:05.411Z,26.94
2019-03-04T12:25:15.087Z,27.06
2019-03-04T12:27:22.400Z,27.00
2019-03-04T12:29:29.704Z,27.10
2019-03-04T12:31:42.020Z,27.27
2019-03-04T12:33:50.083Z,27.24
2019-03-04T12:35:57.635Z,27.30
2019-03-04T12:38:05.664Z,27.18
2019-03-04T12:40:14.387Z,27.09
2019-03-04T12:42:23.057Z,27.14
2019-03-04T12:44:30.222Z,27.46
2019-03-04T12:46:38.452Z,26.90
2019-03-04T12:48:46.550Z,26.96
2019-03-04T12:50:54.247Z,26.81
2019-03-04T12:53:02.647Z,26.67
2019-03-04T12:55:11.803Z,26.68
2019-03-04T12:57:20.429Z,26.65
2019-03-04T12:59:29.238Z,26.41
2019-03-04T13:01:36.629Z,26.31
2019-03-04T13:03:43.963Z,26.21
2019-03-04T13:05:51.036Z,26.21
2019-03-04T13:07:59.314Z,26.16
2019-03-04T13:10:07.814Z,26.01
2019-03-04T13:12:16.792Z,25.98
2019-03-04T13:14:23.851Z,26.27
2019-03-04T13:16:31.146Z,26.10
2019-03-04T13:18:39.710Z,26.18
2019-03-04T13:20:49.082Z,26.23
2019-03-04T13:22:59.173Z,26.05
2019-03-04T13:25:06.501Z,26.02
2019-03-04T13:27:23.365Z,26.05
2019-03-04T13:29:23.268Z,26.22
2019-03-04T13:31:31.940Z,26.18
2019-03-04T13:33:39.818Z,26.17
2019-03-04T13:35:47.487Z,26.14
2019-03-04T13:38:14.521Z,26.32
2019-03-04T13:40:21.951Z,26.00
2019-03-04T13:42:30.053Z,26.16
2019-03-04T13:44:38.022Z,26.43
2019-03-04T13:46:45.948Z,26.05
2019-03-04T13:48:53.153Z,25.82
2019-03-04T13:51:01.315Z,25.91
2019-03-04T13:53:08.661Z,26.02
2019-03-04T13:55:19.901Z,26.34
2019-03-04T13:57:27.437Z,25.99
2019-03-04T13:59:34.788Z,25.94
2019-03-04T14:01:42.875Z,25.85
2019-03-04T14:03:50.084Z,25.65
2019-03-04T14:05:57.403Z,25.65
2019-03-04T14:08:04.719Z,25.82
2019-03-04T14:10:13.063Z,28.48
2019-03-04T14:12:20.338Z,26.41
2019-03-04T14:14:28.465Z,26.78
2019-03-04T14:16:36.042Z,26.21
2019-03-04T14:18:43.918Z,26.53
2019-03-04T14:20:51.351Z,26.79
2019-03-04T14:22:59.068Z,27.32
2019-03-04T14:25:06.853Z,26.30
2019-03-04T14:27:14.008Z,26.84
2019-03-04T14:29:21.908Z,26.58
2019-03-04T14:31:29.233Z,26.07
2019-03-04T14:33:37.424Z,26.17
2019-03-04T14:35:45.504Z,25.81
2019-03-04T14:37:53.490Z,26.38
2019-03-04T14:40:01.648Z,24.76
2019-03-04T14:42:09.608Z,25.78
2019-03-04T14:44:16.965Z,25.54
2019-03-04T14:46:27.921Z,25.15
2019-03-04T14:48:40.673Z,25.83
2019-03-04T14:50:47.935Z,25.92
2019-03-04T14:52:55.334Z,26.38
2019-03-04T14:55:02.841Z,27.35
2019-03-04T14:57:10.222Z,28.87
2019-03-04T14:59:17.306Z,27.05
2019-03-04T15:01:25.330Z,26.33
2019-03-04T15:03:33.141Z,26.29
2019-03-04T15:05:40.640Z,26.33
